sensor_id;sensor_type;location;lat;lon;timestamp;P1;durP1;ratioP1;P2;durP2;ratioP2
68216;SDS011;55037;52.354;4.992;2024-02-26T00:01:20;5.73;;;3.07;;
68216;SDS011;55037;52.354;4.992;2024-02-26T00:03:48;6.95;;;2.97;;
68216;SDS011;55037;52.354;4.992;2024-02-26T00:06:15;6.15;;;2.58;;
68216;SDS011;55037;52.354;4.992;2024-02-26T00:08:45;5.78;;;3.30;;
68216;SDS011;55037;52.354;4.992;2024-02-26T00:11:12;4.55;;;2.80;;
68216;SDS011;55037;52.354;4.992;2024-02-26T00:13:40;6.80;;;3.40;;
68216;SDS011;55037;52.354;4.992;2024-02-26T00:16:07;4.15;;;3.03;;
68216;SDS011;55037;52.354;4.992;2024-02-26T00:18:35;6.20;;;3.00;;
68216;SDS011;55037;52.354;4.992;2024-02-26T00:21:03;4.85;;;2.60;;
68216;SDS011;55037;52.354;4.992;2024-02-26T00:23:31;5.90;;;3.28;;
68216;SDS011;55037;52.354;4.992;2024-02-26T00:25:58;5.73;;;3.57;;
68216;SDS011;55037;52.354;4.992;2024-02-26T00:28:26;6.25;;;4.00;;
68216;SDS011;55037;52.354;4.992;2024-02-26T00:30:55;7.45;;;4.20;;
68216;SDS011;55037;52.354;4.992;2024-02-26T00:33:23;7.25;;;3.75;;
68216;SDS011;55037;52.354;4.992;2024-02-26T00:35:51;8.25;;;3.13;;
68216;SDS011;55037;52.354;4.992;2024-02-26T00:38:19;6.37;;;4.00;;
68216;SDS011;55037;52.354;4.992;2024-02-26T00:40:47;4.45;;;2.88;;
68216;SDS011;55037;52.354;4.992;2024-02-26T00:43:14;7.57;;;3.83;;
68216;SDS011;55037;52.354;4.992;2024-02-26T00:45:42;8.88;;;4.60;;
68216;SDS011;55037;52.354;4.992;2024-02-26T00:48:09;7.47;;;4.93;;
68216;SDS011;55037;52.354;4.992;2024-02-26T00:50:37;7.17;;;3.43;;
68216;SDS011;55037;52.354;4.992;2024-02-26T00:53:05;6.05;;;4.05;;
68216;SDS011;55037;52.354;4.992;2024-02-26T00:55:32;5.68;;;3.75;;
68216;SDS011;55037;52.354;4.992;2024-02-26T00:58:00;6.80;;;4.13;;
68216;SDS011;55037;52.354;4.992;2024-02-26T01:00:27;7.85;;;4.68;;
68216;SDS011;55037;52.354;4.992;2024-02-26T01:02:55;5.73;;;3.60;;
68216;SDS011;55037;52.354;4.992;2024-02-26T01:05:23;6.18;;;3.40;;
68216;SDS011;55037;52.354;4.992;2024-02-26T01:07:51;6.75;;;4.47;;
68216;SDS011;55037;52.354;4.992;2024-02-26T01:10:18;7.13;;;3.95;;
68216;SDS011;55037;52.354;4.992;2024-02-26T01:12:46;8.25;;;4.13;;
68216;SDS011;55037;52.354;4.992;2024-02-26T01:15:14;7.07;;;4.87;;
68216;SDS011;55037;52.354;4.992;2024-02-26T01:17:43;4.63;;;3.15;;
68216;SDS011;55037;52.354;4.992;2024-02-26T01:20:10;4.63;;;3.20;;
68216;SDS011;55037;52.354;4.992;2024-02-26T01:22:38;5.05;;;2.78;;
68216;SDS011;55037;52.354;4.992;2024-02-26T01:25:07;6.30;;;3.47;;
68216;SDS011;55037;52.354;4.992;2024-02-26T01:27:36;6.13;;;3.50;;
68216;SDS011;55037;52.354;4.992;2024-02-26T01:30:04;7.20;;;2.53;;
68216;SDS011;55037;52.354;4.992;2024-02-26T01:32:32;4.95;;;3.38;;
68216;SDS011;55037;52.354;4.992;2024-02-26T01:35:00;6.63;;;4.30;;
68216;SDS011;55037;52.354;4.992;2024-02-26T01:37:29;3.88;;;2.67;;
68216;SDS011;55037;52.354;4.992;2024-02-26T01:39:57;5.00;;;3.27;;
68216;SDS011;55037;52.354;4.992;2024-02-26T01:42:24;7.55;;;3.40;;
68216;SDS011;55037;52.354;4.992;2024-02-26T01:44:52;7.93;;;4.00;;
68216;SDS011;55037;52.354;4.992;2024-02-26T01:47:20;8.05;;;3.50;;
68216;SDS011;55037;52.354;4.992;2024-02-26T01:49:47;5.03;;;3.13;;
68216;SDS011;55037;52.354;4.992;2024-02-26T01:52:15;6.83;;;3.83;;
68216;SDS011;55037;52.354;4.992;2024-02-26T01:54:43;6.45;;;3.30;;
68216;SDS011;55037;52.354;4.992;2024-02-26T01:57:12;11.13;;;4.03;;
68216;SDS011;55037;52.354;4.992;2024-02-26T01:59:41;5.00;;;3.20;;
68216;SDS011;55037;52.354;4.992;2024-02-26T02:02:09;6.93;;;3.63;;
68216;SDS011;55037;52.354;4.992;2024-02-26T02:04:39;10.23;;;4.07;;
68216;SDS011;55037;52.354;4.992;2024-02-26T02:07:07;7.85;;;4.38;;
68216;SDS011;55037;52.354;4.992;2024-02-26T02:09:35;5.60;;;3.45;;
68216;SDS011;55037;52.354;4.992;2024-02-26T02:12:03;7.22;;;3.95;;
68216;SDS011;55037;52.354;4.992;2024-02-26T02:14:31;6.22;;;4.43;;
68216;SDS011;55037;52.354;4.992;2024-02-26T02:16:58;4.57;;;3.13;;
68216;SDS011;55037;52.354;4.992;2024-02-26T02:19:26;7.07;;;4.32;;
68216;SDS011;55037;52.354;4.992;2024-02-26T02:21:54;7.03;;;4.65;;
68216;SDS011;55037;52.354;4.992;2024-02-26T02:24:21;7.15;;;4.00;;
68216;SDS011;55037;52.354;4.992;2024-02-26T02:26:49;6.13;;;4.18;;
68216;SDS011;55037;52.354;4.992;2024-02-26T02:29:17;7.90;;;4.60;;
68216;SDS011;55037;52.354;4.992;2024-02-26T02:31:45;11.00;;;3.95;;
68216;SDS011;55037;52.354;4.992;2024-02-26T02:34:13;7.43;;;4.72;;
68216;SDS011;55037;52.354;4.992;2024-02-26T02:36:53;6.40;;;4.43;;
68216;SDS011;55037;52.354;4.992;2024-02-26T02:39:21;8.85;;;5.07;;
68216;SDS011;55037;52.354;4.992;2024-02-26T02:41:49;6.07;;;4.27;;
68216;SDS011;55037;52.354;4.992;2024-02-26T02:44:17;7.75;;;4.10;;
68216;SDS011;55037;52.354;4.992;2024-02-26T02:46:44;8.98;;;5.43;;
68216;SDS011;55037;52.354;4.992;2024-02-26T02:49:12;8.90;;;5.03;;
68216;SDS011;55037;52.354;4.992;2024-02-26T02:51:40;8.00;;;4.53;;
68216;SDS011;55037;52.354;4.992;2024-02-26T02:54:08;9.10;;;4.27;;
68216;SDS011;55037;52.354;4.992;2024-02-26T02:56:36;8.10;;;4.43;;
68216;SDS011;55037;52.354;4.992;2024-02-26T02:59:03;8.60;;;4.07;;
68216;SDS011;55037;52.354;4.992;2024-02-26T03:01:31;7.47;;;3.80;;
68216;SDS011;55037;52.354;4.992;2024-02-26T03:03:58;7.25;;;3.97;;
68216;SDS011;55037;52.354;4.992;2024-02-26T03:06:26;7.67;;;5.00;;
68216;SDS011;55037;52.354;4.992;2024-02-26T03:08:55;8.88;;;4.88;;
68216;SDS011;55037;52.354;4.992;2024-02-26T03:11:23;13.00;;;5.45;;
68216;SDS011;55037;52.354;4.992;2024-02-26T03:13:52;7.93;;;4.13;;
68216;SDS011;55037;52.354;4.992;2024-02-26T03:16:20;11.00;;;5.38;;
68216;SDS011;55037;52.354;4.992;2024-02-26T03:18:47;11.90;;;5.80;;
68216;SDS011;55037;52.354;4.992;2024-02-26T03:21:15;9.70;;;4.70;;
68216;SDS011;55037;52.354;4.992;2024-02-26T03:23:43;10.85;;;6.13;;
68216;SDS011;55037;52.354;4.992;2024-02-26T03:26:11;6.15;;;4.15;;
68216;SDS011;55037;52.354;4.992;2024-02-26T03:28:41;6.07;;;4.18;;
68216;SDS011;55037;52.354;4.992;2024-02-26T03:31:09;7.30;;;4.00;;
68216;SDS011;55037;52.354;4.992;2024-02-26T03:33:37;8.68;;;4.68;;
68216;SDS011;55037;52.354;4.992;2024-02-26T03:36:07;10.10;;;5.05;;
68216;SDS011;55037;52.354;4.992;2024-02-26T03:38:35;9.30;;;5.20;;
68216;SDS011;55037;52.354;4.992;2024-02-26T03:41:02;9.68;;;5.20;;
68216;SDS011;55037;52.354;4.992;2024-02-26T03:43:30;7.90;;;4.73;;
68216;SDS011;55037;52.354;4.992;2024-02-26T03:45:58;7.80;;;5.00;;
68216;SDS011;55037;52.354;4.992;2024-02-26T03:48:26;7.57;;;4.38;;
68216;SDS011;55037;52.354;4.992;2024-02-26T03:50:54;10.20;;;5.28;;
68216;SDS011;55037;52.354;4.992;2024-02-26T03:53:22;5.30;;;3.70;;
68216;SDS011;55037;52.354;4.992;2024-02-26T03:55:49;8.47;;;4.57;;
68216;SDS011;55037;52.354;4.992;2024-02-26T03:58:18;11.52;;;6.07;;
68216;SDS011;55037;52.354;4.992;2024-02-26T04:00:46;7.68;;;4.45;;
68216;SDS011;55037;52.354;4.992;2024-02-26T04:03:17;10.23;;;5.05;;
68216;SDS011;55037;52.354;4.992;2024-02-26T04:05:44;7.53;;;3.80;;
68216;SDS011;55037;52.354;4.992;2024-02-26T04:08:12;11.30;;;5.70;;
68216;SDS011;55037;52.354;4.992;2024-02-26T04:10:40;9.43;;;4.90;;
68216;SDS011;55037;52.354;4.992;2024-02-26T04:13:07;6.22;;;3.95;;
68216;SDS011;55037;52.354;4.992;2024-02-26T04:15:35;8.43;;;5.47;;
68216;SDS011;55037;52.354;4.992;2024-02-26T04:18:03;7.10;;;4.70;;
68216;SDS011;55037;52.354;4.992;2024-02-26T04:20:31;6.63;;;4.00;;
68216;SDS011;55037;52.354;4.992;2024-02-26T04:22:59;11.80;;;5.05;;
68216;SDS011;55037;52.354;4.992;2024-02-26T04:25:26;9.73;;;4.95;;
68216;SDS011;55037;52.354;4.992;2024-02-26T04:27:55;10.95;;;5.03;;
68216;SDS011;55037;52.354;4.992;2024-02-26T04:30:22;13.00;;;6.70;;
68216;SDS011;55037;52.354;4.992;2024-02-26T04:32:51;13.23;;;6.83;;
68216;SDS011;55037;52.354;4.992;2024-02-26T04:35:18;9.65;;;5.68;;
68216;SDS011;55037;52.354;4.992;2024-02-26T04:37:46;10.82;;;5.57;;
68216;SDS011;55037;52.354;4.992;2024-02-26T04:40:14;11.80;;;5.93;;
68216;SDS011;55037;52.354;4.992;2024-02-26T04:42:41;11.43;;;6.47;;
68216;SDS011;55037;52.354;4.992;2024-02-26T04:45:09;8.23;;;5.17;;
68216;SDS011;55037;52.354;4.992;2024-02-26T04:47:36;9.40;;;5.57;;
68216;SDS011;55037;52.354;4.992;2024-02-26T04:50:04;13.98;;;6.90;;
68216;SDS011;55037;52.354;4.992;2024-02-26T04:52:32;10.73;;;6.05;;
68216;SDS011;55037;52.354;4.992;2024-02-26T04:55:00;17.10;;;7.25;;
68216;SDS011;55037;52.354;4.992;2024-02-26T04:57:27;11.60;;;6.70;;
68216;SDS011;55037;52.354;4.992;2024-02-26T04:59:55;11.20;;;6.78;;
68216;SDS011;55037;52.354;4.992;2024-02-26T05:02:22;12.93;;;6.43;;
68216;SDS011;55037;52.354;4.992;2024-02-26T05:04:51;11.82;;;6.68;;
68216;SDS011;55037;52.354;4.992;2024-02-26T05:07:18;10.40;;;6.50;;
68216;SDS011;55037;52.354;4.992;2024-02-26T05:09:46;9.73;;;5.43;;
68216;SDS011;55037;52.354;4.992;2024-02-26T05:12:16;14.25;;;6.43;;
68216;SDS011;55037;52.354;4.992;2024-02-26T05:14:43;13.82;;;7.30;;
68216;SDS011;55037;52.354;4.992;2024-02-26T05:17:11;12.90;;;7.40;;
68216;SDS011;55037;52.354;4.992;2024-02-26T05:19:39;12.52;;;6.88;;
68216;SDS011;55037;52.354;4.992;2024-02-26T05:22:06;12.90;;;7.07;;
68216;SDS011;55037;52.354;4.992;2024-02-26T05:24:34;15.32;;;7.72;;
68216;SDS011;55037;52.354;4.992;2024-02-26T05:27:01;11.38;;;7.43;;
68216;SDS011;55037;52.354;4.992;2024-02-26T05:29:29;11.32;;;6.82;;
68216;SDS011;55037;52.354;4.992;2024-02-26T05:31:57;13.38;;;7.82;;
68216;SDS011;55037;52.354;4.992;2024-02-26T05:34:25;10.40;;;5.17;;
68216;SDS011;55037;52.354;4.992;2024-02-26T05:36:53;8.45;;;4.82;;
68216;SDS011;55037;52.354;4.992;2024-02-26T05:39:20;9.65;;;5.70;;
68216;SDS011;55037;52.354;4.992;2024-02-26T05:41:48;11.57;;;6.50;;
68216;SDS011;55037;52.354;4.992;2024-02-26T05:44:16;11.88;;;7.50;;
68216;SDS011;55037;52.354;4.992;2024-02-26T05:46:44;10.87;;;6.37;;
68216;SDS011;55037;52.354;4.992;2024-02-26T05:49:12;12.90;;;7.40;;
68216;SDS011;55037;52.354;4.992;2024-02-26T05:51:39;8.65;;;5.20;;
68216;SDS011;55037;52.354;4.992;2024-02-26T05:54:07;9.98;;;6.50;;
68216;SDS011;55037;52.354;4.992;2024-02-26T05:56:36;12.80;;;6.82;;
68216;SDS011;55037;52.354;4.992;2024-02-26T05:59:04;11.30;;;6.63;;
68216;SDS011;55037;52.354;4.992;2024-02-26T06:01:32;12.98;;;8.30;;
68216;SDS011;55037;52.354;4.992;2024-02-26T06:04:00;9.93;;;5.72;;
68216;SDS011;55037;52.354;4.992;2024-02-26T06:06:27;11.75;;;6.63;;
68216;SDS011;55037;52.354;4.992;2024-02-26T06:08:55;10.73;;;6.95;;
68216;SDS011;55037;52.354;4.992;2024-02-26T06:11:23;11.30;;;5.10;;
68216;SDS011;55037;52.354;4.992;2024-02-26T06:13:50;15.35;;;8.32;;
68216;SDS011;55037;52.354;4.992;2024-02-26T06:16:18;8.70;;;5.40;;
68216;SDS011;55037;52.354;4.992;2024-02-26T06:18:45;8.95;;;5.40;;
68216;SDS011;55037;52.354;4.992;2024-02-26T06:21:13;12.38;;;5.82;;
68216;SDS011;55037;52.354;4.992;2024-02-26T06:23:41;9.83;;;5.50;;
68216;SDS011;55037;52.354;4.992;2024-02-26T06:26:08;8.57;;;5.05;;
68216;SDS011;55037;52.354;4.992;2024-02-26T06:28:37;9.40;;;5.05;;
68216;SDS011;55037;52.354;4.992;2024-02-26T06:31:07;10.45;;;6.32;;
68216;SDS011;55037;52.354;4.992;2024-02-26T06:33:35;9.35;;;5.82;;
68216;SDS011;55037;52.354;4.992;2024-02-26T06:36:02;8.33;;;4.73;;
68216;SDS011;55037;52.354;4.992;2024-02-26T06:38:31;8.02;;;4.80;;
68216;SDS011;55037;52.354;4.992;2024-02-26T06:40:58;9.30;;;5.13;;
68216;SDS011;55037;52.354;4.992;2024-02-26T06:43:26;8.50;;;5.28;;
68216;SDS011;55037;52.354;4.992;2024-02-26T06:45:54;8.70;;;4.30;;
68216;SDS011;55037;52.354;4.992;2024-02-26T06:48:22;8.13;;;4.83;;
68216;SDS011;55037;52.354;4.992;2024-02-26T06:50:50;8.02;;;5.10;;
68216;SDS011;55037;52.354;4.992;2024-02-26T06:53:18;7.32;;;4.78;;
68216;SDS011;55037;52.354;4.992;2024-02-26T06:55:45;6.00;;;3.97;;
68216;SDS011;55037;52.354;4.992;2024-02-26T06:58:13;5.90;;;3.47;;
68216;SDS011;55037;52.354;4.992;2024-02-26T07:00:40;5.73;;;3.70;;
68216;SDS011;55037;52.354;4.992;2024-02-26T07:03:08;5.05;;;2.90;;
68216;SDS011;55037;52.354;4.992;2024-02-26T07:05:36;4.43;;;2.90;;
68216;SDS011;55037;52.354;4.992;2024-02-26T07:08:04;7.43;;;4.03;;
68216;SDS011;55037;52.354;4.992;2024-02-26T07:10:31;6.28;;;3.05;;
68216;SDS011;55037;52.354;4.992;2024-02-26T07:12:59;6.93;;;3.60;;
68216;SDS011;55037;52.354;4.992;2024-02-26T07:15:27;6.20;;;4.07;;
68216;SDS011;55037;52.354;4.992;2024-02-26T07:17:54;5.22;;;3.42;;
68216;SDS011;55037;52.354;4.992;2024-02-26T07:20:23;6.63;;;3.55;;
68216;SDS011;55037;52.354;4.992;2024-02-26T07:22:51;4.93;;;3.22;;
68216;SDS011;55037;52.354;4.992;2024-02-26T07:25:18;6.57;;;3.27;;
68216;SDS011;55037;52.354;4.992;2024-02-26T07:27:47;5.88;;;3.50;;
68216;SDS011;55037;52.354;4.992;2024-02-26T07:30:15;5.30;;;2.65;;
68216;SDS011;55037;52.354;4.992;2024-02-26T07:32:43;3.72;;;2.33;;
68216;SDS011;55037;52.354;4.992;2024-02-26T07:35:15;4.00;;;2.55;;
68216;SDS011;55037;52.354;4.992;2024-02-26T07:37:44;6.27;;;2.87;;
68216;SDS011;55037;52.354;4.992;2024-02-26T07:40:11;5.03;;;3.40;;
68216;SDS011;55037;52.354;4.992;2024-02-26T07:42:39;3.78;;;2.20;;
68216;SDS011;55037;52.354;4.992;2024-02-26T07:45:07;3.55;;;2.33;;
68216;SDS011;55037;52.354;4.992;2024-02-26T07:47:34;4.63;;;2.72;;
68216;SDS011;55037;52.354;4.992;2024-02-26T07:50:02;3.97;;;2.17;;
68216;SDS011;55037;52.354;4.992;2024-02-26T07:52:30;4.93;;;2.92;;
68216;SDS011;55037;52.354;4.992;2024-02-26T07:54:57;5.57;;;2.83;;
68216;SDS011;55037;52.354;4.992;2024-02-26T07:57:25;4.55;;;2.88;;
68216;SDS011;55037;52.354;4.992;2024-02-26T07:59:53;4.57;;;3.22;;
68216;SDS011;55037;52.354;4.992;2024-02-26T08:02:20;3.97;;;2.60;;
68216;SDS011;55037;52.354;4.992;2024-02-26T08:04:48;3.40;;;2.15;;
68216;SDS011;55037;52.354;4.992;2024-02-26T08:07:16;5.05;;;2.40;;
68216;SDS011;55037;52.354;4.992;2024-02-26T08:09:44;4.68;;;2.75;;
68216;SDS011;55037;52.354;4.992;2024-02-26T08:12:12;4.50;;;2.63;;
68216;SDS011;55037;52.354;4.992;2024-02-26T08:14:40;3.40;;;1.93;;
68216;SDS011;55037;52.354;4.992;2024-02-26T08:17:09;4.38;;;2.30;;
68216;SDS011;55037;52.354;4.992;2024-02-26T08:19:37;3.28;;;2.08;;
68216;SDS011;55037;52.354;4.992;2024-02-26T08:22:05;3.65;;;2.17;;
68216;SDS011;55037;52.354;4.992;2024-02-26T08:24:33;3.60;;;2.45;;
68216;SDS011;55037;52.354;4.992;2024-02-26T08:27:00;5.23;;;1.93;;
68216;SDS011;55037;52.354;4.992;2024-02-26T08:29:29;3.90;;;2.10;;
68216;SDS011;55037;52.354;4.992;2024-02-26T08:31:56;3.97;;;2.60;;
68216;SDS011;55037;52.354;4.992;2024-02-26T08:34:24;4.68;;;2.15;;
68216;SDS011;55037;52.354;4.992;2024-02-26T08:36:51;3.08;;;1.83;;
68216;SDS011;55037;52.354;4.992;2024-02-26T08:39:19;2.93;;;1.90;;
68216;SDS011;55037;52.354;4.992;2024-02-26T08:41:47;4.40;;;2.38;;
68216;SDS011;55037;52.354;4.992;2024-02-26T08:44:14;3.45;;;2.45;;
68216;SDS011;55037;52.354;4.992;2024-02-26T08:46:42;4.53;;;2.25;;
68216;SDS011;55037;52.354;4.992;2024-02-26T08:49:12;3.95;;;2.22;;
68216;SDS011;55037;52.354;4.992;2024-02-26T08:51:43;3.60;;;2.37;;
68216;SDS011;55037;52.354;4.992;2024-02-26T08:54:10;3.60;;;2.25;;
68216;SDS011;55037;52.354;4.992;2024-02-26T08:56:38;3.28;;;2.30;;
68216;SDS011;55037;52.354;4.992;2024-02-26T08:59:06;2.95;;;2.00;;
68216;SDS011;55037;52.354;4.992;2024-02-26T09:01:34;3.17;;;2.42;;
68216;SDS011;55037;52.354;4.992;2024-02-26T09:04:01;3.27;;;2.20;;
68216;SDS011;55037;52.354;4.992;2024-02-26T09:06:29;4.10;;;2.00;;
68216;SDS011;55037;52.354;4.992;2024-02-26T09:08:57;4.53;;;2.20;;
68216;SDS011;55037;52.354;4.992;2024-02-26T09:11:27;2.97;;;2.13;;
68216;SDS011;55037;52.354;4.992;2024-02-26T09:13:55;2.63;;;1.73;;
68216;SDS011;55037;52.354;4.992;2024-02-26T09:16:23;3.27;;;2.00;;
68216;SDS011;55037;52.354;4.992;2024-02-26T09:18:50;3.05;;;2.03;;
68216;SDS011;55037;52.354;4.992;2024-02-26T09:21:18;4.80;;;2.47;;
68216;SDS011;55037;52.354;4.992;2024-02-26T09:23:53;2.85;;;1.75;;
68216;SDS011;55037;52.354;4.992;2024-02-26T09:26:21;3.15;;;1.92;;
68216;SDS011;55037;52.354;4.992;2024-02-26T09:28:48;3.20;;;2.07;;
68216;SDS011;55037;52.354;4.992;2024-02-26T09:31:17;5.32;;;2.25;;
68216;SDS011;55037;52.354;4.992;2024-02-26T09:33:45;4.10;;;2.58;;
68216;SDS011;55037;52.354;4.992;2024-02-26T09:36:13;3.67;;;2.33;;
68216;SDS011;55037;52.354;4.992;2024-02-26T09:38:41;3.35;;;2.53;;
68216;SDS011;55037;52.354;4.992;2024-02-26T09:41:22;3.53;;;2.20;;
68216;SDS011;55037;52.354;4.992;2024-02-26T09:43:50;4.22;;;2.17;;
68216;SDS011;55037;52.354;4.992;2024-02-26T09:46:21;3.45;;;2.15;;
68216;SDS011;55037;52.354;4.992;2024-02-26T09:48:48;2.55;;;2.03;;
68216;SDS011;55037;52.354;4.992;2024-02-26T09:51:16;3.40;;;2.35;;
68216;SDS011;55037;52.354;4.992;2024-02-26T09:53:44;4.47;;;2.47;;
68216;SDS011;55037;52.354;4.992;2024-02-26T09:56:13;3.40;;;2.25;;
68216;SDS011;55037;52.354;4.992;2024-02-26T09:58:42;4.57;;;2.92;;
68216;SDS011;55037;52.354;4.992;2024-02-26T10:01:13;3.58;;;2.25;;
68216;SDS011;55037;52.354;4.992;2024-02-26T10:03:41;3.80;;;2.42;;
68216;SDS011;55037;52.354;4.992;2024-02-26T10:06:11;3.10;;;1.87;;
68216;SDS011;55037;52.354;4.992;2024-02-26T10:08:39;5.45;;;2.67;;
68216;SDS011;55037;52.354;4.992;2024-02-26T10:11:07;3.00;;;1.98;;
68216;SDS011;55037;52.354;4.992;2024-02-26T10:13:35;3.30;;;2.13;;
68216;SDS011;55037;52.354;4.992;2024-02-26T10:16:03;3.50;;;2.42;;
68216;SDS011;55037;52.354;4.992;2024-02-26T10:18:46;4.50;;;2.53;;
68216;SDS011;55037;52.354;4.992;2024-02-26T10:21:17;4.78;;;2.30;;
68216;SDS011;55037;52.354;4.992;2024-02-26T10:23:45;8.35;;;3.22;;
68216;SDS011;55037;52.354;4.992;2024-02-26T10:26:14;4.70;;;2.50;;
68216;SDS011;55037;52.354;4.992;2024-02-26T10:28:43;3.88;;;1.90;;
68216;SDS011;55037;52.354;4.992;2024-02-26T10:31:10;4.53;;;2.00;;
68216;SDS011;55037;52.354;4.992;2024-02-26T10:33:39;5.90;;;2.40;;
68216;SDS011;55037;52.354;4.992;2024-02-26T10:36:09;3.45;;;1.90;;
68216;SDS011;55037;52.354;4.992;2024-02-26T10:38:37;1.75;;;1.30;;
68216;SDS011;55037;52.354;4.992;2024-02-26T10:41:09;3.50;;;2.28;;
68216;SDS011;55037;52.354;4.992;2024-02-26T10:43:40;3.53;;;2.17;;
68216;SDS011;55037;52.354;4.992;2024-02-26T10:46:09;4.20;;;2.08;;
68216;SDS011;55037;52.354;4.992;2024-02-26T10:48:37;3.47;;;2.10;;
68216;SDS011;55037;52.354;4.992;2024-02-26T10:51:05;2.30;;;1.50;;
68216;SDS011;55037;52.354;4.992;2024-02-26T10:53:33;2.72;;;1.60;;
68216;SDS011;55037;52.354;4.992;2024-02-26T10:56:02;3.83;;;1.87;;
68216;SDS011;55037;52.354;4.992;2024-02-26T10:58:31;3.03;;;1.95;;
68216;SDS011;55037;52.354;4.992;2024-02-26T11:00:59;2.78;;;1.75;;
68216;SDS011;55037;52.354;4.992;2024-02-26T11:03:27;3.05;;;1.65;;
68216;SDS011;55037;52.354;4.992;2024-02-26T11:05:55;2.67;;;1.50;;
68216;SDS011;55037;52.354;4.992;2024-02-26T11:08:24;2.50;;;1.50;;
68216;SDS011;55037;52.354;4.992;2024-02-26T11:10:53;4.68;;;1.55;;
68216;SDS011;55037;52.354;4.992;2024-02-26T11:13:21;2.92;;;1.85;;
68216;SDS011;55037;52.354;4.992;2024-02-26T11:15:48;2.45;;;1.45;;
68216;SDS011;55037;52.354;4.992;2024-02-26T11:18:17;2.78;;;1.75;;
68216;SDS011;55037;52.354;4.992;2024-02-26T11:20:46;3.30;;;1.53;;
68216;SDS011;55037;52.354;4.992;2024-02-26T11:23:15;2.22;;;1.40;;
68216;SDS011;55037;52.354;4.992;2024-02-26T11:25:43;2.15;;;1.67;;
68216;SDS011;55037;52.354;4.992;2024-02-26T11:28:12;2.47;;;1.75;;
68216;SDS011;55037;52.354;4.992;2024-02-26T11:30:42;2.75;;;1.52;;
68216;SDS011;55037;52.354;4.992;2024-02-26T11:33:10;2.47;;;1.20;;
68216;SDS011;55037;52.354;4.992;2024-02-26T11:35:39;2.95;;;1.65;;
68216;SDS011;55037;52.354;4.992;2024-02-26T11:38:07;2.88;;;1.38;;
68216;SDS011;55037;52.354;4.992;2024-02-26T11:40:38;2.33;;;1.30;;
68216;SDS011;55037;52.354;4.992;2024-02-26T11:43:09;3.92;;;2.33;;
68216;SDS011;55037;52.354;4.992;2024-02-26T11:50:47;3.00;;;1.40;;
68216;SDS011;55037;52.354;4.992;2024-02-26T11:56:35;2.30;;;1.38;;
68216;SDS011;55037;52.354;4.992;2024-02-26T11:58:38;8.03;;;1.50;;
68216;SDS011;55037;52.354;4.992;2024-02-26T12:03:56;1.77;;;1.23;;
68216;SDS011;55037;52.354;4.992;2024-02-26T12:06:24;6.28;;;1.90;;
68216;SDS011;55037;52.354;4.992;2024-02-26T12:08:52;1.98;;;1.42;;
68216;SDS011;55037;52.354;4.992;2024-02-26T12:11:20;2.23;;;1.43;;
68216;SDS011;55037;52.354;4.992;2024-02-26T12:13:47;2.35;;;1.48;;
68216;SDS011;55037;52.354;4.992;2024-02-26T12:19:22;1.98;;;1.40;;
68216;SDS011;55037;52.354;4.992;2024-02-26T12:21:52;2.58;;;1.90;;
68216;SDS011;55037;52.354;4.992;2024-02-26T12:24:23;2.60;;;1.40;;
68216;SDS011;55037;52.354;4.992;2024-02-26T12:26:51;2.97;;;1.58;;
68216;SDS011;55037;52.354;4.992;2024-02-26T12:29:18;2.70;;;1.50;;
68216;SDS011;55037;52.354;4.992;2024-02-26T12:31:48;3.78;;;1.92;;
68216;SDS011;55037;52.354;4.992;2024-02-26T12:34:16;3.67;;;1.70;;
68216;SDS011;55037;52.354;4.992;2024-02-26T12:36:46;4.60;;;1.53;;
68216;SDS011;55037;52.354;4.992;2024-02-26T12:39:14;2.25;;;1.50;;
68216;SDS011;55037;52.354;4.992;2024-02-26T12:41:42;3.88;;;1.55;;
68216;SDS011;55037;52.354;4.992;2024-02-26T12:44:16;2.42;;;1.48;;
68216;SDS011;55037;52.354;4.992;2024-02-26T12:46:44;2.95;;;1.80;;
68216;SDS011;55037;52.354;4.992;2024-02-26T12:49:14;2.53;;;1.63;;
68216;SDS011;55037;52.354;4.992;2024-02-26T12:51:44;2.03;;;1.10;;
68216;SDS011;55037;52.354;4.992;2024-02-26T12:54:12;2.88;;;1.40;;
68216;SDS011;55037;52.354;4.992;2024-02-26T12:56:40;2.42;;;1.20;;
68216;SDS011;55037;52.354;4.992;2024-02-26T12:59:08;2.63;;;1.55;;
68216;SDS011;55037;52.354;4.992;2024-02-26T13:01:36;3.30;;;1.70;;
68216;SDS011;55037;52.354;4.992;2024-02-26T13:04:04;4.85;;;1.60;;
68216;SDS011;55037;52.354;4.992;2024-02-26T13:06:33;2.40;;;1.35;;
68216;SDS011;55037;52.354;4.992;2024-02-26T13:09:02;3.45;;;1.25;;
68216;SDS011;55037;52.354;4.992;2024-02-26T13:11:30;2.70;;;1.83;;
68216;SDS011;55037;52.354;4.992;2024-02-26T13:13:58;2.13;;;1.40;;
68216;SDS011;55037;52.354;4.992;2024-02-26T13:16:26;3.40;;;1.40;;
68216;SDS011;55037;52.354;4.992;2024-02-26T13:18:54;3.38;;;1.40;;
68216;SDS011;55037;52.354;4.992;2024-02-26T13:21:22;3.15;;;1.50;;
68216;SDS011;55037;52.354;4.992;2024-02-26T13:23:52;2.88;;;1.80;;
68216;SDS011;55037;52.354;4.992;2024-02-26T13:26:21;4.03;;;1.93;;
68216;SDS011;55037;52.354;4.992;2024-02-26T13:29:01;2.72;;;1.35;;
68216;SDS011;55037;52.354;4.992;2024-02-26T13:31:30;2.03;;;1.17;;
68216;SDS011;55037;52.354;4.992;2024-02-26T13:33:57;4.53;;;1.50;;
68216;SDS011;55037;52.354;4.992;2024-02-26T13:36:25;1.80;;;1.20;;
68216;SDS011;55037;52.354;4.992;2024-02-26T13:38:54;2.90;;;1.77;;
68216;SDS011;55037;52.354;4.992;2024-02-26T13:41:22;3.33;;;1.30;;
68216;SDS011;55037;52.354;4.992;2024-02-26T13:43:50;2.00;;;1.48;;
68216;SDS011;55037;52.354;4.992;2024-02-26T13:46:18;2.45;;;1.30;;
68216;SDS011;55037;52.354;4.992;2024-02-26T13:48:45;2.97;;;1.75;;
68216;SDS011;55037;52.354;4.992;2024-02-26T13:51:14;2.53;;;1.50;;
68216;SDS011;55037;52.354;4.992;2024-02-26T13:53:43;2.92;;;1.48;;
68216;SDS011;55037;52.354;4.992;2024-02-26T13:56:11;2.63;;;1.55;;
68216;SDS011;55037;52.354;4.992;2024-02-26T13:58:38;3.63;;;1.98;;
68216;SDS011;55037;52.354;4.992;2024-02-26T14:01:06;8.20;;;2.20;;
68216;SDS011;55037;52.354;4.992;2024-02-26T14:03:34;2.83;;;1.50;;
68216;SDS011;55037;52.354;4.992;2024-02-26T14:06:02;2.30;;;1.52;;
68216;SDS011;55037;52.354;4.992;2024-02-26T14:08:30;3.47;;;1.40;;
68216;SDS011;55037;52.354;4.992;2024-02-26T14:10:58;2.95;;;1.60;;
68216;SDS011;55037;52.354;4.992;2024-02-26T14:13:26;2.60;;;1.67;;
68216;SDS011;55037;52.354;4.992;2024-02-26T14:15:54;4.87;;;1.77;;
68216;SDS011;55037;52.354;4.992;2024-02-26T14:18:22;2.60;;;1.50;;
68216;SDS011;55037;52.354;4.992;2024-02-26T14:20:51;5.57;;;2.60;;
68216;SDS011;55037;52.354;4.992;2024-02-26T14:23:18;3.45;;;1.88;;
68216;SDS011;55037;52.354;4.992;2024-02-26T14:25:46;2.95;;;1.98;;
68216;SDS011;55037;52.354;4.992;2024-02-26T14:28:13;3.43;;;1.77;;
68216;SDS011;55037;52.354;4.992;2024-02-26T14:30:51;2.80;;;1.70;;
68216;SDS011;55037;52.354;4.992;2024-02-26T14:33:18;2.80;;;1.73;;
68216;SDS011;55037;52.354;4.992;2024-02-26T14:35:46;5.13;;;1.60;;
68216;SDS011;55037;52.354;4.992;2024-02-26T14:38:14;2.33;;;1.30;;
68216;SDS011;55037;52.354;4.992;2024-02-26T14:40:42;4.13;;;1.80;;
68216;SDS011;55037;52.354;4.992;2024-02-26T14:43:09;4.10;;;2.28;;
68216;SDS011;55037;52.354;4.992;2024-02-26T14:45:38;2.30;;;1.70;;
68216;SDS011;55037;52.354;4.992;2024-02-26T14:48:06;3.92;;;1.63;;
68216;SDS011;55037;52.354;4.992;2024-02-26T14:50:34;2.20;;;1.45;;
68216;SDS011;55037;52.354;4.992;2024-02-26T14:53:02;3.50;;;2.10;;
68216;SDS011;55037;52.354;4.992;2024-02-26T14:55:30;3.13;;;2.05;;
68216;SDS011;55037;52.354;4.992;2024-02-26T14:57:57;6.15;;;1.90;;
68216;SDS011;55037;52.354;4.992;2024-02-26T15:00:25;3.20;;;1.27;;
68216;SDS011;55037;52.354;4.992;2024-02-26T15:02:53;3.20;;;2.10;;
68216;SDS011;55037;52.354;4.992;2024-02-26T15:05:21;3.13;;;1.90;;